createdAt,value
2018-07-19T00:01:22.706Z,99.90
2018-07-19T00:03:51.049Z,99.90
2018-07-19T00:06:19.329Z,99.90
2018-07-19T00:08:47.642Z,99.90
2018-07-19T00:11:15.943Z,99.90
2018-07-19T00:13:44.266Z,99.90
2018-07-19T00:16:12.854Z,99.90
2018-07-19T00:18:41.134Z,99.90
2018-07-19T00:21:09.423Z,99.90
2018-07-19T00:23:37.710Z,99.90
2018-07-19T00:26:06.004Z,99.90
2018-07-19T00:28:34.393Z,99.90
2018-07-19T00:31:02.742Z,99.90
2018-07-19T00:33:31.049Z,99.90
2018-07-19T00:35:59.329Z,99.90
2018-07-19T00:38:27.598Z,99.90
2018-07-19T00:40:55.898Z,99.90
2018-07-19T00:43:24.173Z,99.90
2018-07-19T00:45:52.462Z,99.90
2018-07-19T00:48:20.746Z,99.90
2018-07-19T00:50:49.069Z,99.90
2018-07-19T00:53:17.361Z,99.90
2018-07-19T00:55:45.650Z,99.90
2018-07-19T00:58:13.953Z,99.90
2018-07-19T01:00:42.340Z,99.90
2018-07-19T01:03:10.642Z,99.90
2018-07-19T01:05:38.927Z,99.90
2018-07-19T01:08:08.097Z,99.90
2018-07-19T01:10:36.659Z,99.90
2018-07-19T01:13:05.465Z,99.90
2018-07-19T01:15:33.874Z,99.90
2018-07-19T01:18:02.343Z,99.90
2018-07-19T01:20:30.628Z,99.90
2018-07-19T01:22:58.921Z,99.90
2018-07-19T01:25:27.227Z,99.90
2018-07-19T01:27:55.506Z,99.90
2018-07-19T01:30:23.829Z,99.90
2018-07-19T01:32:52.134Z,99.90
2018-07-19T01:35:20.414Z,99.90
2018-07-19T01:37:48.714Z,99.90
2018-07-19T01:42:45.748Z,99.90
2018-07-19T01:45:14.457Z,99.90
2018-07-19T01:47:42.961Z,99.90
2018-07-19T01:50:11.886Z,99.90
2018-07-19T01:52:40.194Z,99.90
2018-07-19T01:55:08.908Z,99.90
2018-07-19T01:57:37.462Z,99.90
2018-07-19T02:00:06.839Z,99.90
2018-07-19T02:02:36.312Z,99.90
2018-07-19T02:05:05.214Z,99.90
2018-07-19T02:07:33.529Z,99.90
2018-07-19T02:10:01.821Z,99.90
2018-07-19T02:12:30.114Z,99.90
2018-07-19T02:14:58.411Z,99.90
2018-07-19T02:17:26.697Z,99.90
2018-07-19T02:19:54.991Z,99.90
2018-07-19T02:22:23.293Z,99.90
2018-07-19T02:24:51.582Z,99.90
2018-07-19T02:27:19.916Z,99.90
2018-07-19T02:29:48.218Z,99.90
2018-07-19T02:32:16.513Z,99.90
2018-07-19T02:34:44.821Z,99.90
2018-07-19T02:37:13.109Z,99.90
2018-07-19T02:39:41.415Z,99.90
2018-07-19T02:42:09.737Z,99.90
2018-07-19T02:44:38.137Z,99.90
2018-07-19T02:47:06.539Z,99.90
2018-07-19T02:49:34.887Z,99.90
2018-07-19T02:52:03.183Z,99.90
2018-07-19T02:54:31.534Z,99.90
2018-07-19T02:56:59.834Z,99.90
2018-07-19T02:59:28.125Z,99.90
2018-07-19T03:01:56.421Z,99.90
2018-07-19T03:04:24.718Z,99.90
2018-07-19T03:06:52.998Z,99.90
2018-07-19T03:09:21.277Z,99.90
2018-07-19T03:11:49.569Z,99.90
2018-07-19T03:14:17.863Z,99.90
2018-07-19T03:16:46.158Z,99.90
2018-07-19T03:19:14.445Z,99.90
2018-07-19T03:21:42.762Z,99.90
2018-07-19T03:24:11.061Z,99.90
2018-07-19T03:26:39.342Z,99.90
2018-07-19T03:29:07.677Z,99.90
2018-07-19T03:31:36.079Z,99.90
2018-07-19T03:34:04.377Z,99.90
2018-07-19T03:36:32.686Z,99.90
2018-07-19T03:39:01.091Z,99.90
2018-07-19T03:41:29.509Z,99.90
2018-07-19T03:43:57.923Z,99.90
2018-07-19T03:46:26.214Z,99.90
2018-07-19T03:48:54.506Z,99.90
2018-07-19T03:51:22.786Z,99.90
2018-07-19T03:53:51.069Z,99.90
2018-07-19T03:56:19.355Z,99.90
2018-07-19T03:58:47.649Z,99.90
2018-07-19T04:01:15.990Z,99.90
2018-07-19T04:03:44.285Z,99.90
2018-07-19T04:08:40.620Z,99.90
2018-07-19T04:11:08.930Z,99.90
2018-07-19T04:13:37.213Z,99.90
2018-07-19T04:16:05.611Z,99.90
2018-07-19T04:18:33.885Z,99.90
2018-07-19T04:21:02.185Z,99.90
2018-07-19T04:25:58.469Z,99.90
2018-07-19T04:28:26.754Z,99.90
2018-07-19T04:30:55.189Z,99.90
2018-07-19T04:33:23.496Z,99.90
2018-07-19T04:35:51.776Z,99.90
2018-07-19T04:38:20.148Z,99.90
2018-07-19T04:40:48.377Z,99.90
2018-07-19T04:43:16.729Z,99.90
2018-07-19T04:45:45.026Z,99.90
2018-07-19T04:48:13.321Z,99.90
2018-07-19T04:50:41.778Z,99.90
2018-07-19T04:53:10.122Z,99.90
2018-07-19T04:55:38.413Z,99.90
2018-07-19T04:58:06.733Z,99.90
2018-07-19T05:00:35.045Z,99.90
2018-07-19T05:03:03.427Z,99.90
2018-07-19T05:05:31.719Z,99.90
2018-07-19T05:08:00.015Z,99.90
2018-07-19T05:10:28.323Z,99.90
2018-07-19T05:12:56.605Z,99.90
2018-07-19T05:15:24.875Z,99.90
2018-07-19T05:17:53.156Z,99.90
2018-07-19T05:20:21.434Z,99.90
2018-07-19T05:22:49.708Z,99.90
2018-07-19T05:25:17.984Z,99.90
2018-07-19T05:27:46.391Z,99.90
2018-07-19T05:30:14.677Z,99.90
2018-07-19T05:35:10.970Z,99.90
2018-07-19T05:37:39.264Z,99.90
2018-07-19T05:40:07.573Z,99.90
2018-07-19T05:45:04.003Z,99.90
2018-07-19T05:47:32.299Z,99.90
2018-07-19T05:50:00.593Z,99.90
2018-07-19T05:52:28.879Z,99.90
2018-07-19T05:57:25.186Z,99.90
2018-07-19T05:59:53.474Z,99.90
2018-07-19T06:02:21.774Z,99.90
2018-07-19T06:04:50.056Z,99.90
2018-07-19T06:07:18.359Z,99.90
2018-07-19T06:09:46.649Z,99.90
2018-07-19T06:12:14.951Z,99.90
2018-07-19T06:14:43.221Z,99.90
2018-07-19T06:17:11.615Z,99.90
2018-07-19T06:19:39.899Z,99.90
2018-07-19T06:22:08.191Z,99.90
2018-07-19T06:24:36.504Z,99.90
2018-07-19T06:27:04.837Z,99.90
2018-07-19T06:29:33.149Z,99.90
2018-07-19T06:32:01.438Z,99.90
2018-07-19T06:34:29.735Z,99.90
2018-07-19T06:36:58.030Z,99.90
2018-07-19T06:39:26.317Z,99.90
2018-07-19T06:41:54.600Z,99.90
2018-07-19T06:44:22.958Z,99.90
2018-07-19T06:46:51.255Z,99.90
2018-07-19T06:49:19.603Z,99.90
2018-07-19T06:51:47.856Z,99.90
2018-07-19T06:54:16.114Z,99.90
2018-07-19T06:56:44.395Z,99.90
2018-07-19T06:59:12.681Z,99.90
2018-07-19T07:01:40.975Z,98.90
2018-07-19T07:04:09.260Z,98.00
2018-07-19T07:06:37.540Z,96.80
2018-07-19T07:09:08.196Z,93.60
2018-07-19T07:11:36.521Z,89.50
2018-07-19T07:14:04.837Z,80.00
2018-07-19T07:16:33.171Z,75.30
2018-07-19T07:19:01.450Z,69.30
2018-07-19T07:21:29.770Z,58.60
2018-07-19T07:23:58.086Z,50.00
2018-07-19T07:26:26.402Z,46.20
2018-07-19T07:28:54.682Z,42.90
2018-07-19T07:31:23.003Z,40.50
2018-07-19T07:33:51.298Z,38.80
2018-07-19T07:36:19.591Z,38.20
2018-07-19T07:38:47.930Z,36.70
2018-07-19T07:41:16.223Z,34.50
2018-07-19T07:43:44.524Z,35.60
2018-07-19T07:48:40.809Z,35.20
2018-07-19T07:51:09.542Z,33.30
2018-07-19T07:53:37.861Z,34.00
2018-07-19T07:56:06.157Z,32.90
2018-07-19T07:58:34.444Z,30.30
2018-07-19T08:01:02.717Z,29.00
2018-07-19T08:03:30.998Z,28.60
2018-07-19T08:05:59.277Z,27.90
2018-07-19T08:08:27.650Z,25.70
2018-07-19T08:10:55.934Z,27.30
2018-07-19T08:13:24.229Z,26.00
2018-07-19T08:15:52.535Z,28.00
2018-07-19T08:18:20.804Z,29.90
2018-07-19T08:20:49.081Z,29.30
2018-07-19T08:23:17.380Z,28.40
2018-07-19T08:25:45.654Z,30.00
2018-07-19T08:28:14.072Z,30.70
2018-07-19T08:30:42.340Z,30.00
2018-07-19T08:33:10.631Z,30.20
2018-07-19T08:35:38.922Z,30.60
2018-07-19T08:38:07.204Z,29.00
2018-07-19T08:40:35.487Z,26.90
2018-07-19T08:43:03.795Z,27.30
2018-07-19T08:45:32.108Z,26.20
2018-07-19T08:48:00.416Z,26.00
2018-07-19T08:50:28.712Z,27.10
2018-07-19T08:52:57.034Z,27.40
2018-07-19T08:55:25.739Z,25.40
2018-07-19T08:57:54.062Z,24.70
2018-07-19T09:00:22.354Z,25.20
2018-07-19T09:02:50.665Z,24.80
2018-07-19T09:05:18.958Z,24.90
2018-07-19T09:07:47.235Z,25.90
2018-07-19T09:10:15.726Z,25.20
2018-07-19T09:12:44.068Z,23.80
2018-07-19T09:15:12.355Z,25.10
2018-07-19T09:17:40.635Z,25.70
2018-07-19T09:20:08.951Z,24.20
2018-07-19T09:22:37.262Z,24.30
2018-07-19T09:25:05.583Z,24.50
2018-07-19T09:27:33.870Z,25.50
2018-07-19T09:30:02.162Z,25.70
2018-07-19T09:32:30.449Z,25.10
2018-07-19T09:34:58.728Z,25.60
2018-07-19T09:37:27.016Z,24.70
2018-07-19T09:39:55.314Z,24.00
2018-07-19T09:42:23.639Z,25.70
2018-07-19T09:44:51.916Z,24.00
2018-07-19T09:47:20.202Z,24.10
2018-07-19T09:49:48.527Z,23.50
2018-07-19T09:52:16.858Z,24.30
2018-07-19T09:54:55.172Z,22.70
2018-07-19T09:57:23.527Z,22.60
2018-07-19T09:59:51.803Z,22.90
2018-07-19T10:02:20.086Z,24.50
2018-07-19T10:04:48.378Z,24.70
2018-07-19T10:07:16.687Z,25.40
2018-07-19T10:09:45.267Z,24.20
2018-07-19T10:12:13.553Z,24.50
2018-07-19T10:14:41.828Z,25.40
2018-07-19T10:17:10.322Z,24.40
2018-07-19T10:19:38.623Z,25.30
2018-07-19T10:22:07.030Z,26.20
2018-07-19T10:24:35.444Z,25.50
2018-07-19T10:27:03.746Z,26.80
2018-07-19T10:29:32.054Z,27.20
2018-07-19T10:32:00.407Z,24.70
2018-07-19T10:34:28.709Z,23.40
2018-07-19T10:36:56.946Z,22.60
2018-07-19T10:39:25.232Z,24.20
2018-07-19T10:41:53.530Z,23.80
2018-07-19T10:44:21.865Z,23.60
2018-07-19T10:46:50.190Z,23.60
2018-07-19T10:49:18.503Z,23.20
2018-07-19T10:51:46.809Z,25.00
2018-07-19T10:54:15.054Z,23.50
2018-07-19T10:56:43.323Z,22.90
2018-07-19T10:59:11.619Z,23.00
2018-07-19T11:01:39.879Z,22.80
2018-07-19T11:04:08.209Z,23.20
2018-07-19T11:06:36.486Z,22.10
2018-07-19T11:09:07.475Z,22.70
2018-07-19T11:11:35.750Z,22.80
2018-07-19T11:14:04.063Z,22.40
2018-07-19T11:16:32.362Z,24.00
2018-07-19T11:19:00.662Z,23.50
2018-07-19T11:21:28.949Z,23.50
2018-07-19T11:23:57.231Z,24.20
2018-07-19T11:26:25.502Z,25.00
2018-07-19T11:28:53.759Z,24.50
2018-07-19T11:31:22.028Z,23.30
2018-07-19T11:33:50.294Z,24.00
2018-07-19T11:36:18.561Z,24.90
2018-07-19T11:38:46.831Z,23.90
2018-07-19T11:41:15.115Z,25.20
2018-07-19T11:43:43.383Z,26.60
2018-07-19T11:46:11.694Z,24.90
2018-07-19T11:51:07.994Z,24.40
2018-07-19T11:53:36.270Z,25.10
2018-07-19T11:56:04.695Z,24.30
2018-07-19T11:58:32.967Z,24.40
2018-07-19T12:01:01.235Z,24.80
2018-07-19T12:03:29.501Z,24.60
2018-07-19T12:05:57.799Z,25.10
2018-07-19T12:08:26.067Z,24.80
2018-07-19T12:10:54.339Z,26.40
2018-07-19T12:13:22.615Z,25.10
2018-07-19T12:15:50.897Z,29.00
2018-07-19T12:18:19.167Z,29.10
2018-07-19T12:20:47.430Z,26.90
2018-07-19T12:23:15.710Z,27.70
2018-07-19T12:25:44.078Z,27.60
2018-07-19T12:28:12.361Z,28.00
2018-07-19T12:30:40.630Z,26.80
2018-07-19T12:33:08.910Z,25.80
2018-07-19T12:35:37.841Z,25.80
2018-07-19T12:38:06.122Z,25.00
2018-07-19T12:40:34.386Z,26.00
2018-07-19T12:43:02.807Z,26.60
2018-07-19T12:45:31.090Z,28.30
2018-07-19T12:47:59.360Z,26.60
2018-07-19T12:50:27.639Z,28.90
2018-07-19T12:52:55.895Z,27.00
2018-07-19T12:55:24.181Z,26.60
2018-07-19T12:57:52.452Z,26.30
2018-07-19T13:00:20.755Z,26.10
2018-07-19T13:02:49.010Z,27.20
2018-07-19T13:05:17.321Z,26.90
2018-07-19T13:07:45.606Z,26.80
2018-07-19T13:10:13.919Z,25.80
2018-07-19T13:15:10.316Z,26.70
2018-07-19T13:17:38.595Z,26.50
2018-07-19T13:20:06.898Z,26.60
2018-07-19T13:22:35.198Z,26.40
2018-07-19T13:25:03.550Z,27.40
2018-07-19T13:27:32.136Z,26.70
2018-07-19T13:30:00.421Z,26.90
2018-07-19T13:32:28.720Z,26.80
2018-07-19T13:34:57.081Z,26.30
2018-07-19T13:37:25.588Z,27.10
2018-07-19T13:42:21.878Z,27.80
2018-07-19T13:44:50.510Z,27.30
2018-07-19T13:49:46.891Z,26.70
2018-07-19T13:52:15.537Z,25.00
2018-07-19T13:54:45.862Z,27.30
2018-07-19T13:57:14.179Z,25.90
2018-07-19T13:59:42.473Z,26.10
2018-07-19T14:02:10.807Z,28.00
2018-07-19T14:04:39.092Z,28.30
2018-07-19T14:07:07.391Z,26.10
2018-07-19T14:09:36.510Z,28.40
2018-07-19T14:12:04.790Z,27.10
2018-07-19T14:14:33.078Z,26.70
2018-07-19T14:17:01.386Z,28.20
2018-07-19T14:19:29.766Z,26.30
2018-07-19T14:21:58.068Z,25.40
2018-07-19T14:24:26.394Z,25.30
2018-07-19T14:26:54.706Z,26.50
2018-07-19T14:29:22.981Z,26.20
2018-07-19T14:31:51.283Z,25.00
2018-07-19T14:34:19.565Z,25.60
2018-07-19T14:36:47.934Z,25.80
2018-07-19T14:39:16.242Z,25.40
2018-07-19T14:41:44.520Z,24.90
2018-07-19T14:44:12.798Z,25.60
2018-07-19T14:46:41.075Z,25.80
2018-07-19T14:49:09.350Z,25.40
2018-07-19T14:51:37.633Z,25.00
2018-07-19T14:56:34.015Z,27.20
2018-07-19T14:59:02.911Z,28.20
2018-07-19T15:01:31.187Z,27.50
2018-07-19T15:04:00.146Z,27.90
2018-07-19T15:06:28.982Z,28.30
2018-07-19T15:08:57.610Z,28.40
2018-07-19T15:11:25.947Z,28.30
2018-07-19T15:13:54.358Z,27.20
2018-07-19T15:16:22.714Z,29.40
2018-07-19T15:18:51.158Z,28.40
2018-07-19T15:21:19.591Z,28.40
2018-07-19T15:23:47.841Z,27.80
2018-07-19T15:26:16.114Z,27.60
2018-07-19T15:28:44.489Z,29.20
2018-07-19T15:31:15.428Z,28.40
2018-07-19T15:33:43.944Z,28.30
2018-07-19T15:36:12.213Z,28.30
2018-07-19T15:38:40.469Z,28.20
2018-07-19T15:41:08.766Z,28.20
2018-07-19T15:43:37.714Z,28.10
2018-07-19T15:46:06.238Z,28.00
2018-07-19T15:48:34.517Z,27.80
2018-07-19T15:51:02.890Z,28.80
2018-07-19T15:53:31.235Z,31.00
2018-07-19T15:55:59.520Z,28.90
2018-07-19T15:58:27.808Z,28.50
2018-07-19T16:00:56.068Z,29.10
2018-07-19T16:03:24.427Z,27.80
2018-07-19T16:05:52.694Z,28.20
2018-07-19T16:08:20.984Z,28.60
2018-07-19T16:10:49.263Z,28.50
2018-07-19T16:13:17.525Z,29.50
2018-07-19T16:15:45.805Z,29.10
2018-07-19T16:18:14.075Z,30.00
2018-07-19T16:20:42.365Z,29.40
2018-07-19T16:23:10.641Z,30.10
2018-07-19T16:30:35.657Z,29.70
2018-07-19T16:33:03.934Z,31.10
2018-07-19T16:35:32.492Z,29.60
2018-07-19T16:38:00.775Z,30.50
2018-07-19T16:40:29.053Z,29.00
2018-07-19T16:45:17.586Z,29.80
2018-07-19T16:47:46.160Z,30.10
2018-07-19T16:50:14.558Z,30.00
2018-07-19T16:52:42.847Z,29.60
2018-07-19T16:55:11.184Z,29.70
2018-07-19T16:57:39.554Z,30.50
2018-07-19T17:00:08.976Z,30.90
2018-07-19T17:02:38.210Z,31.10
2018-07-19T17:05:07.171Z,30.30
2018-07-19T17:07:36.449Z,30.40
2018-07-19T17:12:33.243Z,31.90
2018-07-19T17:15:01.547Z,31.90
2018-07-19T17:17:29.885Z,32.50
2018-07-19T17:19:58.142Z,33.70
2018-07-19T17:22:26.875Z,33.00
2018-07-19T17:24:56.024Z,33.00
2018-07-19T17:27:24.623Z,33.20
2018-07-19T17:29:53.325Z,32.40
2018-07-19T17:32:22.257Z,33.00
2018-07-19T17:34:50.873Z,32.70
2018-07-19T17:37:19.810Z,33.30
2018-07-19T17:39:48.115Z,32.80
2018-07-19T17:42:16.877Z,33.30
2018-07-19T17:44:45.129Z,33.50
2018-07-19T17:47:13.410Z,33.70
2018-07-19T17:49:41.771Z,33.60
2018-07-19T17:52:10.446Z,33.50
2018-07-19T17:54:39.252Z,33.40
2018-07-19T17:57:09.353Z,32.40
2018-07-19T17:59:38.188Z,35.50
2018-07-19T18:02:07.500Z,36.20
2018-07-19T18:04:36.814Z,34.10
2018-07-19T18:07:06.183Z,35.00
2018-07-19T18:09:36.315Z,36.70
2018-07-19T18:12:05.321Z,36.90
2018-07-19T18:14:36.975Z,38.20
2018-07-19T18:17:06.943Z,39.20
2018-07-19T18:19:35.385Z,40.90
2018-07-19T18:22:03.752Z,39.60
2018-07-19T18:24:32.195Z,39.30
2018-07-19T18:27:00.691Z,40.60
2018-07-19T18:29:29.410Z,41.20
2018-07-19T18:31:57.725Z,41.90
2018-07-19T18:34:25.987Z,42.60
2018-07-19T18:39:22.476Z,43.10
2018-07-19T18:41:50.896Z,44.10
2018-07-19T18:44:19.354Z,44.80
2018-07-19T18:46:47.631Z,47.30
2018-07-19T18:49:15.894Z,49.60
2018-07-19T18:51:44.210Z,49.80
2018-07-19T18:54:12.466Z,51.10
2018-07-19T18:56:40.740Z,51.60
2018-07-19T18:59:09.166Z,52.30
2018-07-19T19:01:37.466Z,52.90
2018-07-19T19:04:05.799Z,53.80
2018-07-19T19:06:34.146Z,54.70
2018-07-19T19:09:02.452Z,54.50
2018-07-19T19:11:30.754Z,55.30
2018-07-19T19:13:59.046Z,55.20
2018-07-19T19:16:27.397Z,55.80
2018-07-19T19:18:55.675Z,56.60
2018-07-19T19:21:23.937Z,58.50
2018-07-19T19:23:52.277Z,58.50
2018-07-19T19:26:20.814Z,59.30
2018-07-19T19:28:49.151Z,60.60
2018-07-19T19:31:17.714Z,62.80
2018-07-19T19:33:46.030Z,62.90
2018-07-19T19:36:14.310Z,63.30
2018-07-19T19:38:43.030Z,63.40
2018-07-19T19:41:11.366Z,64.30
2018-07-19T19:43:39.642Z,63.80
2018-07-19T19:46:07.942Z,65.20
2018-07-19T19:48:36.856Z,64.20
2018-07-19T19:51:06.759Z,64.10
2018-07-19T19:53:35.270Z,64.70
2018-07-19T19:56:03.981Z,64.70
2018-07-19T19:58:32.476Z,65.60
2018-07-19T20:01:01.091Z,66.60
2018-07-19T20:03:29.483Z,68.00
2018-07-19T20:05:57.765Z,67.90
2018-07-19T20:08:26.305Z,69.90
2018-07-19T20:10:54.605Z,69.90
2018-07-19T20:13:22.874Z,71.90
2018-07-19T20:15:51.257Z,73.30
2018-07-19T20:18:19.636Z,75.20
2018-07-19T20:20:48.044Z,76.50
2018-07-19T20:23:16.413Z,77.70
2018-07-19T20:25:44.726Z,79.60
2018-07-19T20:28:13.037Z,81.80
2018-07-19T20:30:41.472Z,84.20
2018-07-19T20:33:09.886Z,86.60
2018-07-19T20:35:38.157Z,89.50
2018-07-19T20:38:06.429Z,90.50
2018-07-19T20:40:34.706Z,91.10
2018-07-19T20:43:02.996Z,92.10
2018-07-19T20:45:31.278Z,93.10
2018-07-19T20:47:59.543Z,93.50
2018-07-19T20:50:27.883Z,94.20
2018-07-19T20:55:24.350Z,95.00
2018-07-19T20:57:52.633Z,95.80
2018-07-19T21:00:20.907Z,96.30
2018-07-19T21:02:49.179Z,97.10
2018-07-19T21:05:17.459Z,97.40
2018-07-19T21:07:45.754Z,97.80
2018-07-19T21:10:14.204Z,97.80
2018-07-19T21:12:42.493Z,98.00
2018-07-19T21:15:10.763Z,98.80
2018-07-19T21:17:39.054Z,99.50
2018-07-19T21:20:07.354Z,99.90
2018-07-19T21:22:35.645Z,99.90
2018-07-19T21:25:04.103Z,99.90
2018-07-19T21:27:32.422Z,99.90
2018-07-19T21:30:00.693Z,99.90
2018-07-19T21:32:28.967Z,99.90
2018-07-19T21:34:57.257Z,99.90
2018-07-19T21:37:25.537Z,99.90
2018-07-19T21:39:53.813Z,99.90
2018-07-19T21:42:22.098Z,99.90
2018-07-19T21:44:50.369Z,99.90
2018-07-19T21:47:18.646Z,99.90
2018-07-19T21:49:46.941Z,99.90
2018-07-19T21:52:15.210Z,99.90
2018-07-19T21:54:43.492Z,99.90
2018-07-19T21:57:11.762Z,99.90
2018-07-19T21:59:40.040Z,99.90
2018-07-19T22:02:08.349Z,99.90
2018-07-19T22:04:36.622Z,99.90
2018-07-19T22:07:05.383Z,99.90
2018-07-19T22:09:33.684Z,99.90
2018-07-19T22:12:01.974Z,99.90
2018-07-19T22:14:30.275Z,99.90
2018-07-19T22:16:58.601Z,99.90
2018-07-19T22:19:26.838Z,99.90
2018-07-19T22:21:55.121Z,99.90
2018-07-19T22:24:23.390Z,99.90
2018-07-19T22:26:51.667Z,99.90
2018-07-19T22:29:20.027Z,99.90
2018-07-19T22:31:48.314Z,99.90
2018-07-19T22:34:16.650Z,99.90
2018-07-19T22:36:44.923Z,99.90
2018-07-19T22:39:13.193Z,99.90
2018-07-19T22:41:41.494Z,99.90
2018-07-19T22:44:09.869Z,99.90
2018-07-19T22:46:38.171Z,99.90
2018-07-19T22:49:07.141Z,99.90
2018-07-19T22:51:35.438Z,99.90
2018-07-19T22:54:03.719Z,99.90
2018-07-19T22:56:32.006Z,99.90
2018-07-19T22:59:00.281Z,99.90
2018-07-19T23:01:28.575Z,99.90
2018-07-19T23:03:56.889Z,99.90
2018-07-19T23:08:53.261Z,99.90
2018-07-19T23:11:21.554Z,99.90
2018-07-19T23:13:49.829Z,99.90
2018-07-19T23:16:18.109Z,99.90
2018-07-19T23:18:46.454Z,99.90
2018-07-19T23:21:14.782Z,99.90
2018-07-19T23:23:43.050Z,99.90
2018-07-19T23:26:11.346Z,99.90
2018-07-19T23:28:39.630Z,99.90
2018-07-19T23:31:07.925Z,99.90
2018-07-19T23:33:36.257Z,99.90
2018-07-19T23:36:10.078Z,99.90
2018-07-19T23:38:43.190Z,99.90
2018-07-19T23:41:15.575Z,99.90
2018-07-19T23:43:46.574Z,99.90
2018-07-19T23:46:20.672Z,99.90
2018-07-19T23:48:49.165Z,99.90
2018-07-19T23:51:17.423Z,99.90
2018-07-19T23:53:45.857Z,99.90
2018-07-19T23:56:14.175Z,99.90
2018-07-19T23:58:42.447Z,99.90
